createdAt,value
2019-05-05T04:04:06.144Z,101299.98
2019-05-05T04:07:35.493Z,101299.53
2019-05-05T04:11:06.705Z,101302.73
2019-05-05T04:14:36.681Z,101309.23
2019-05-05T04:18:05.606Z,101310.63
2019-05-05T04:21:36.775Z,101311.85
2019-05-05T04:25:05.459Z,101314.21
2019-05-05T04:28:34.606Z,101315.95
2019-05-05T04:32:04.379Z,101317.65
2019-05-05T04:35:31.264Z,101314.1
2019-05-05T04:39:00.227Z,101322.04
2019-05-05T04:42:29.220Z,101327.95
2019-05-05T04:45:59.156Z,101329.5
2019-05-05T04:49:28.085Z,101331.35
2019-05-05T04:52:56.037Z,101335.84
2019-05-05T04:56:24.966Z,101341.7
2019-05-05T04:59:54.923Z,101341.84
2019-05-05T05:03:23.972Z,101342.28
2019-05-05T05:06:54.014Z,101355.04
2019-05-05T05:10:20.793Z,101358.51
2019-05-05T05:13:49.740Z,101360.75
2019-05-05T05:17:20.659Z,101360.53
2019-05-05T05:20:49.584Z,101360.34
2019-05-05T05:24:18.546Z,101358.17
2019-05-05T05:27:47.476Z,101367.56
2019-05-05T05:31:16.437Z,101369.89
2019-05-05T05:34:45.396Z,101378.18
2019-05-05T05:38:14.505Z,101383.05
2019-05-05T05:41:45.431Z,101380.73
2019-05-05T05:45:16.076Z,101385.6
2019-05-05T05:48:45.027Z,101386.32
2019-05-05T05:52:19.144Z,101390.25
2019-05-05T05:55:47.311Z,101398.32
2019-05-05T05:59:16.292Z,101396.8
2019-05-05T06:02:45.255Z,101399.92
2019-05-05T06:06:14.238Z,101406.54
2019-05-05T06:09:44.214Z,101412.57
2019-05-05T06:13:14.870Z,101419.54
2019-05-05T06:16:42.247Z,101418.8
2019-05-05T06:20:11.203Z,101420.15
2019-05-05T06:23:40.180Z,101418.28
2019-05-05T06:27:10.370Z,101423.62
2019-05-05T06:30:39.336Z,101423.38
2019-05-05T06:34:08.391Z,101423.91
2019-05-05T06:37:39.387Z,101434.56
2019-05-05T06:41:10.853Z,101431.56
2019-05-05T06:44:41.664Z,101437.69
2019-05-05T06:48:10.864Z,101434.53
2019-05-05T06:51:40.863Z,101441.1
2019-05-05T06:55:09.931Z,101449
2019-05-05T06:58:39.260Z,101451.9
2019-05-05T07:02:08.453Z,101452.56
2019-05-05T20:23:13.684Z,101507.9
2019-05-05T20:26:43.054Z,101510.03
2019-05-05T20:30:14.475Z,101507.42
2019-05-05T20:33:44.440Z,101511.21
2019-05-05T20:37:15.403Z,101502.18
2019-05-05T20:40:54.581Z,101502.82
2019-05-05T20:46:11.253Z,101503.75
2019-05-05T20:49:41.217Z,101507.1
2019-05-05T20:53:14.153Z,101515.34
2019-05-05T20:56:45.136Z,101513.43
2019-05-05T21:00:17.079Z,101517.14
2019-05-05T21:03:47.040Z,101517.5
2019-05-05T21:07:15.991Z,101518.49
2019-05-05T21:10:46.008Z,101517.06
2019-05-05T21:14:30.334Z,101513.33
2019-05-05T21:17:49.912Z,101513.64
2019-05-05T21:21:19.848Z,101509.62
2019-05-05T21:24:48.790Z,101506.51
2019-05-05T21:28:18.999Z,101507.5
2019-05-05T21:31:49.950Z,101502.28
2019-05-05T21:35:19.928Z,101504.81
2019-05-05T21:38:49.928Z,101505.14
2019-05-05T21:42:19.910Z,101503.57
2019-05-05T21:45:49.929Z,101504.67
2019-05-05T21:49:19.901Z,101508.68
2019-05-05T21:52:49.881Z,101505.94
2019-05-05T21:56:19.850Z,101508.59
2019-05-05T21:59:56.183Z,101506.46
